Time;durP1;ratioP1;P1;durP2;ratioP2;P2;SDS_P1;SDS_P2;PMS_P1;PMS_P2;Temp;Humidity;BMP_temperature;BMP_pressure;BME280_temperature;BME280_humidity;BME280_pressure;Samples;Min_cycle;Max_cycle;Signal;HPM_P1;HPM_P2
2021/05/21 00:00:36;;;;;;;5.78;3.55;;;;;;;5.28;66.49;99289.89;1689657;84;21009;-62
2021/05/21 00:03:05;;;;;;;5.90;3.33;;;;;;;5.34;66.56;99293.58;1682684;84;20985;-62
2021/05/21 00:05:32;;;;;;;3.67;3.30;;;;;;;5.41;66.60;99286.02;1689380;84;20902;-62
2021/05/21 00:07:59;;;;;;;3.75;3.37;;;;;;;5.46;66.65;99278.95;1686710;84;21060;-62
2021/05/21 00:10:26;;;;;;;4.55;3.70;;;;;;;5.52;66.69;99281.33;1685382;84;21470;-62
2021/05/21 00:12:53;;;;;;;5.63;3.77;;;;;;;5.56;66.73;99280.31;1688480;84;21218;-62
2021/05/21 00:15:21;;;;;;;5.17;3.67;;;;;;;5.63;66.80;99283.98;1687625;84;21630;-62
2021/05/21 00:17:48;;;;;;;6.20;3.15;;;;;;;5.70;66.86;99277.70;1690984;84;20964;-61
2021/05/21 00:20:15;;;;;;;5.40;3.45;;;;;;;5.78;66.98;99282.17;1685611;84;21010;-61
2021/05/21 00:22:42;;;;;;;4.87;3.25;;;;;;;5.86;66.98;99277.58;1685315;84;20949;-62
2021/05/21 00:25:09;;;;;;;5.15;3.02;;;;;;;5.96;67.01;99273.77;1687790;84;21471;-61
2021/05/21 00:27:35;;;;;;;5.00;3.80;;;;;;;6.06;67.10;99271.72;1688260;84;25289;-62
2021/05/21 00:30:04;;;;;;;4.53;3.40;;;;;;;6.15;67.12;99266.64;1682785;84;20945;-62
2021/05/21 00:32:31;;;;;;;4.80;3.37;;;;;;;6.21;67.16;99265.95;1686206;83;21032;-61
2021/05/21 00:34:58;;;;;;;11.75;4.05;;;;;;;6.30;67.17;99264.77;1690205;84;20946;-61
2021/05/21 00:37:25;;;;;;;6.75;3.35;;;;;;;6.38;67.21;99266.63;1687116;84;21578;-62
2021/05/21 00:39:52;;;;;;;6.05;3.67;;;;;;;6.46;67.26;99255.52;1687535;84;21503;-62
2021/05/21 00:42:19;;;;;;;4.90;3.30;;;;;;;6.55;67.30;99256.08;1686447;84;20913;-62
2021/05/21 00:44:58;;;;;;;5.50;3.40;;;;;;;6.63;67.30;99254.03;1683656;82;20960;-62
2021/05/21 00:47:27;;;;;;;4.92;3.20;;;;;;;6.63;67.46;99241.06;1685347;84;20982;-62
2021/05/21 00:49:54;;;;;;;12.07;3.60;;;;;;;6.79;67.36;99255.13;1681806;84;21012;-62
2021/05/21 00:52:24;;;;;;;9.25;3.72;;;;;;;6.85;67.35;99253.59;1685588;84;20949;-62
2021/05/21 00:54:51;;;;;;;6.47;3.55;;;;;;;6.90;67.41;99250.36;1661833;84;20941;-62
2021/05/21 00:57:19;;;;;;;4.80;3.12;;;;;;;6.98;67.46;99253.13;1715364;82;20914;-62
2021/05/21 00:59:46;;;;;;;5.40;3.33;;;;;;;7.05;67.42;99246.76;1715216;81;21782;-61
2021/05/21 01:02:13;;;;;;;6.35;3.52;;;;;;;7.05;67.42;99246.76;1717409;82;20985;-62
2021/05/21 01:04:41;;;;;;;;;;;;;;;7.08;67.52;99250.52;1715893;82;21594;-61
2021/05/21 01:07:08;;;;;;;4.65;3.40;;;;;;;7.10;67.62;99230.55;1711935;82;20173;-62
2021/05/21 01:09:34;;;;;;;4.62;3.02;;;;;;;7.15;67.58;99229.91;1715406;82;21048;-62
2021/05/21 01:12:03;;;;;;;8.13;3.23;;;;;;;7.20;67.65;99234.47;1718024;82;20968;-62
2021/05/21 01:14:30;;;;;;;4.58;3.35;;;;;;;7.25;67.67;99223.41;1721180;82;21685;-61
2021/05/21 01:16:57;;;;;;;5.00;3.13;;;;;;;7.28;67.67;99229.80;1721672;82;20941;-61
2021/05/21 01:19:23;;;;;;;3.87;2.50;;;;;;;7.32;67.76;99230.52;1717146;82;20901;-62
2021/05/21 01:21:50;;;;;;;6.70;3.67;;;;;;;7.35;67.77;99231.22;1717399;82;21454;-62
2021/05/21 01:24:18;;;;;;;6.15;2.98;;;;;;;7.38;67.79;99231.09;1717667;82;20933;-61
2021/05/21 01:26:47;;;;;;;6.28;3.33;;;;;;;7.44;67.84;99223.95;1718600;82;21035;-62
2021/05/21 01:29:14;;;;;;;3.83;3.17;;;;;;;7.49;67.85;99223.30;1718182;82;21027;-62
2021/05/21 01:31:44;;;;;;;7.28;3.40;;;;;;;7.50;67.93;99226.28;1712738;82;21003;-61
2021/05/21 01:34:12;;;;;;;6.25;3.60;;;;;;;7.52;67.90;99227.06;1715519;82;21689;-62
2021/05/21 01:36:38;;;;;;;;;;;;;;;7.50;67.88;99216.73;1705245;82;20949;-62
2021/05/21 01:39:11;;;;;;;6.30;3.30;;;;;;;7.48;67.96;99215.10;1713145;82;21516;-62
2021/05/21 01:41:39;;;;;;;3.27;2.98;;;;;;;7.43;67.94;99215.78;1723310;82;20912;-62
2021/05/21 01:44:10;;;;;;;3.70;3.35;;;;;;;7.35;67.92;99210.44;1721422;82;23683;-62
2021/05/21 01:46:38;;;;;;;4.90;3.08;;;;;;;7.27;67.98;99211.67;1720218;82;21530;-61
2021/05/21 01:49:06;;;;;;;3.80;3.22;;;;;;;7.18;67.97;99201.22;1722489;82;20917;-61
2021/05/21 01:51:35;;;;;;;3.98;3.20;;;;;;;7.11;68.01;99202.38;1720543;82;21724;-62
2021/05/21 01:54:15;;;;;;;3.50;2.98;;;;;;;7.05;68.09;99199.57;1693447;82;20968;-62
2021/05/21 01:56:41;;;;;;;3.25;2.62;;;;;;;7.00;68.07;99200.67;1717090;82;20936;-62
2021/05/21 01:59:08;;;;;;;4.23;2.70;;;;;;;6.91;68.14;99194.95;1714900;82;21826;-62
2021/05/21 02:01:35;;;;;;;4.60;2.83;;;;;;;6.84;68.18;99193.52;1716466;82;20929;-62
2021/05/21 02:04:02;;;;;;;4.35;3.42;;;;;;;6.77;68.25;99189.47;1715531;82;21030;-62
2021/05/21 02:06:29;;;;;;;3.90;3.08;;;;;;;6.70;68.34;99191.94;1715720;82;20970;-62
2021/05/21 02:08:56;;;;;;;3.83;3.30;;;;;;;6.61;68.32;99188.39;1713060;82;21536;-62
2021/05/21 02:11:23;;;;;;;7.22;3.25;;;;;;;6.56;68.42;99190.34;1722867;82;21583;-61
2021/05/21 02:13:50;;;;;;;4.10;3.17;;;;;;;6.50;68.46;99191.43;1691475;82;21637;-62
2021/05/21 02:16:16;;;;;;;4.58;3.45;;;;;;;6.41;68.54;99184.85;1716104;82;21023;-61
2021/05/21 02:18:44;;;;;;;5.90;3.25;;;;;;;6.32;68.63;99184.34;1714209;82;20917;-62
2021/05/21 02:21:11;;;;;;;3.85;3.47;;;;;;;6.25;68.71;99186.34;1709167;82;20936;-62
2021/05/21 02:23:39;;;;;;;4.65;3.60;;;;;;;6.23;68.84;99175.17;1713621;82;20952;-61
2021/05/21 02:26:06;;;;;;;4.10;3.70;;;;;;;6.22;68.93;99176.93;1716172;82;20972;-62
2021/05/21 02:28:33;;;;;;;6.28;3.40;;;;;;;6.21;69.02;99176.98;1717204;82;21557;-61
2021/05/21 02:31:00;;;;;;;4.78;3.83;;;;;;;6.18;69.01;99172.75;1713942;82;20921;-62
2021/05/21 02:33:28;;;;;;;4.42;3.98;;;;;;;6.17;69.02;99167.64;1721330;82;20936;-62
2021/05/21 02:35:54;;;;;;;;;;;;;;;6.16;69.14;99166.80;1722565;82;20965;-62
2021/05/21 02:38:21;;;;;;;6.97;4.50;;;;;;;6.12;69.23;99157.89;1713212;82;20534;-62
2021/05/21 02:40:48;;;;;;;6.47;4.65;;;;;;;6.08;69.21;99161.06;1714443;82;27236;-62
2021/05/21 02:43:15;;;;;;;6.17;4.42;;;;;;;6.07;69.26;99158.52;1716994;82;20941;-61
2021/05/21 02:45:42;;;;;;;5.00;4.45;;;;;;;6.07;69.30;99155.92;1719545;82;21438;-62
2021/05/21 02:48:09;;;;;;;5.43;4.17;;;;;;;6.03;69.40;99153.45;1718465;82;20933;-61
2021/05/21 02:50:39;;;;;;;4.23;3.73;;;;;;;6.03;69.43;99148.27;1716290;82;21188;-62
2021/05/21 02:53:05;;;;;;;6.12;4.25;;;;;;;6.05;69.49;99150.81;1714367;82;21647;-62
2021/05/21 02:55:31;;;;;;;5.50;3.92;;;;;;;6.07;69.59;99142.96;1716584;82;20944;-62
2021/05/21 02:57:58;;;;;;;6.70;4.00;;;;;;;6.12;69.65;99145.77;1687047;84;20967;-61
2021/05/21 03:00:25;;;;;;;4.30;3.83;;;;;;;6.17;69.76;99141.72;1686978;84;21016;-62
2021/05/21 03:02:52;;;;;;;6.75;3.58;;;;;;;6.22;69.70;99135.45;1686810;84;21534;-62
2021/05/21 03:05:22;;;;;;;6.47;3.90;;;;;;;6.37;70.00;99128.81;1685544;84;20999;-62
2021/05/21 03:07:56;;;;;;;4.37;2.85;;;;;;;7.00;70.54;99127.99;1685852;84;20980;-62
2021/05/21 03:10:26;;;;;;;3.90;3.50;;;;;;;7.80;70.21;99123.59;1687116;84;21904;-62
2021/05/21 03:12:54;;;;;;;4.30;3.40;;;;;;;8.79;70.22;99116.37;1684560;83;21004;-62
2021/05/21 03:15:25;;;;;;;5.28;2.95;;;;;;;9.86;69.54;99109.53;1683900;83;21000;-62
2021/05/21 03:17:52;;;;;;;3.27;2.50;;;;;;;10.82;69.07;99105.91;1681230;84;21022;-62
2021/05/21 03:20:18;;;;;;;3.65;2.83;;;;;;;11.80;68.63;99109.17;1682812;84;20937;-63
2021/05/21 03:22:45;;;;;;;5.60;3.10;;;;;;;12.67;68.19;99100.16;1684620;84;20957;-62
2021/05/21 03:25:13;;;;;;;4.25;2.92;;;;;;;13.54;67.64;99097.38;1684118;84;21008;-62
2021/05/21 03:27:41;;;;;;;3.47;2.85;;;;;;;14.32;67.02;99098.39;1687062;84;20945;-62
2021/05/21 03:30:10;;;;;;;7.50;3.12;;;;;;;14.98;66.24;99098.81;1686693;84;21029;-63
2021/05/21 03:32:38;;;;;;;10.82;3.17;;;;;;;15.88;66.67;99100.23;1685781;83;20961;-63
2021/05/21 03:35:08;;;;;;;4.33;2.98;;;;;;;16.65;65.63;99091.39;1683185;84;20922;-63
2021/05/21 03:37:43;;;;;;;7.45;2.92;;;;;;;17.23;65.42;99090.51;1688349;83;21567;-63
2021/05/21 03:40:10;;;;;;;3.70;2.72;;;;;;;17.72;64.23;99089.90;1687853;84;21454;-63
2021/05/21 03:42:37;;;;;;;4.03;2.60;;;;;;;18.33;64.47;99094.60;1683410;83;21230;-63
2021/05/21 03:45:06;;;;;;;3.87;2.40;;;;;;;19.00;63.89;99093.45;1683618;84;20964;-64
2021/05/21 03:47:34;;;;;;;8.20;3.45;;;;;;;19.42;63.29;99089.94;1669411;84;20901;-63
2021/05/21 03:50:03;;;;;;;6.78;2.65;;;;;;;19.56;62.63;99091.78;1688631;81;21490;-63
2021/05/21 03:52:30;;;;;;;3.58;2.25;;;;;;;19.41;62.09;99089.60;1677473;83;20996;-63
2021/05/21 03:54:56;;;;;;;7.03;2.92;;;;;;;19.67;61.68;99090.30;1681081;84;21724;-63
2021/05/21 03:57:23;;;;;;;6.85;3.27;;;;;;;19.31;61.32;99085.31;1678730;83;26924;-63
2021/05/21 03:59:52;;;;;;;5.40;2.40;;;;;;;18.93;60.79;99085.27;1684145;83;20941;-63
2021/05/21 04:02:18;;;;;;;3.37;2.42;;;;;;;18.29;60.25;99085.78;1680711;84;20991;-63
2021/05/21 04:04:45;;;;;;;3.08;2.75;;;;;;;17.52;60.60;99079.26;1678040;84;20974;-63
2021/05/21 04:07:12;;;;;;;4.08;2.65;;;;;;;16.77;60.81;99075.89;1677604;84;21952;-63
2021/05/21 04:09:38;;;;;;;11.12;3.35;;;;;;;16.22;60.62;99080.41;1680316;84;20962;-63
2021/05/21 04:12:05;;;;;;;18.07;3.92;;;;;;;15.71;60.68;99070.45;1673127;83;20935;-63
2021/05/21 04:14:32;;;;;;;5.53;2.85;;;;;;;15.34;60.67;99075.90;1677122;84;20952;-63
2021/05/21 04:16:59;;;;;;;4.65;2.90;;;;;;;15.09;60.88;99078.73;1686097;84;26346;-63
2021/05/21 04:19:26;;;;;;;7.90;2.90;;;;;;;15.36;61.26;99077.94;1671562;84;21575;-63
2021/05/21 04:21:53;;;;;;;5.85;2.70;;;;;;;15.87;60.95;99066.94;1678314;84;21586;-63
2021/05/21 04:24:20;;;;;;;3.35;2.60;;;;;;;15.79;59.93;99069.83;1683913;84;26385;-63
2021/05/21 04:26:46;;;;;;;4.22;3.08;;;;;;;15.37;59.51;99070.39;1688444;84;21582;-63
2021/05/21 04:29:13;;;;;;;22.30;4.45;;;;;;;14.93;59.98;99065.45;1681598;84;20941;-63
2021/05/21 04:31:40;;;;;;;35.50;4.75;;;;;;;14.67;60.24;99060.83;1690348;84;21020;-63
2021/05/21 04:34:07;;;;;;;26.42;4.30;;;;;;;14.91;60.28;99056.02;1691566;84;20982;-63
2021/05/21 04:36:33;;;;;;;14.15;3.08;;;;;;;15.00;59.88;99057.45;1692103;83;20914;-63
2021/05/21 04:39:00;;;;;;;22.22;4.30;;;;;;;14.91;59.35;99058.16;1690184;84;20965;-63
2021/05/21 04:41:27;;;;;;;17.35;4.03;;;;;;;14.75;59.72;99057.63;1687439;84;21464;-63
2021/05/21 04:43:54;;;;;;;13.15;3.08;;;;;;;14.90;60.10;99056.49;1693810;84;21115;-63
2021/05/21 04:46:21;;;;;;;;;;;;;;;15.91;60.69;99061.43;1683471;83;21010;-63
2021/05/21 04:48:47;;;;;;;7.30;2.70;;;;;;;17.37;59.78;99054.20;1677698;84;20174;-63
2021/05/21 04:51:14;;;;;;;;;;;;;;;18.63;59.89;99051.02;1682144;83;20959;-64
2021/05/21 04:53:41;;;;;;;17.50;4.42;;;;;;;19.73;58.67;99048.66;1686937;84;20170;-64
2021/05/21 04:56:11;;;;;;;15.20;3.08;;;;;;;20.18;57.52;99047.83;1685854;84;21293;-63
2021/05/21 04:58:38;;;;;;;5.30;2.77;;;;;;;20.09;57.84;99049.56;1700453;83;20933;-63
2021/05/21 05:01:05;;;;;;;28.38;3.83;;;;;;;20.00;57.06;99046.50;1705899;83;20914;-63
2021/05/21 05:03:32;;;;;;;7.28;2.98;;;;;;;19.74;56.99;99045.02;1708701;83;21414;-63
2021/05/21 05:05:59;;;;;;;23.27;3.00;;;;;;;19.83;57.34;99046.80;1700626;83;21486;-64
2021/05/21 05:08:25;;;;;;;33.25;3.70;;;;;;;19.77;56.74;99043.89;1698858;83;21020;-64
2021/05/21 05:10:52;;;;;;;16.15;3.65;;;;;;;19.33;56.17;99036.55;1709234;83;20935;-63
2021/05/21 05:13:19;;;;;;;7.22;2.83;;;;;;;18.86;56.13;99033.89;1702956;83;28276;-63
2021/05/21 05:15:46;;;;;;;;;;;;;;;18.56;56.25;99037.01;1708930;83;21596;-63
2021/05/21 05:18:15;;;;;;;16.60;2.67;;;;;;;18.10;55.35;99033.25;1704160;83;20197;-63
2021/05/21 05:20:43;;;;;;;18.62;3.37;;;;;;;17.60;55.82;99036.38;1702448;83;21026;-64
2021/05/21 05:23:11;;;;;;;6.40;2.70;;;;;;;17.62;56.43;99031.31;1720834;83;20907;-63
2021/05/21 05:25:43;;;;;;;15.60;3.15;;;;;;;17.76;55.67;99030.59;1703779;83;21472;-63
2021/05/21 05:28:12;;;;;;;8.50;2.75;;;;;;;17.56;55.61;99030.53;1723629;82;20965;-63
2021/05/21 05:30:39;;;;;;;24.40;3.77;;;;;;;17.33;55.53;99029.03;1698637;83;20931;-63
2021/05/21 05:33:06;;;;;;;11.43;2.50;;;;;;;16.91;55.26;99029.09;1700981;83;21078;-63
2021/05/21 05:35:34;;;;;;;12.73;2.90;;;;;;;16.51;55.20;99036.35;1700461;83;20988;-63
2021/05/21 05:38:01;;;;;;;8.60;3.02;;;;;;;16.16;55.42;99030.88;1712337;83;21601;-63
2021/05/21 05:40:30;;;;;;;8.40;2.33;;;;;;;16.00;55.76;99033.06;1706548;83;20969;-63
2021/05/21 05:42:56;;;;;;;21.48;2.95;;;;;;;15.81;55.57;99040.28;1700384;83;21552;-63
2021/05/21 05:45:23;;;;;;;41.08;5.72;;;;;;;15.56;55.70;99037.41;1711432;83;21026;-62
2021/05/21 05:47:50;;;;;;;11.45;3.00;;;;;;;15.33;55.58;99039.21;1706710;83;20919;-62
2021/05/21 05:50:17;;;;;;;9.50;3.05;;;;;;;14.99;55.52;99038.70;1703632;83;20930;-63
2021/05/21 05:52:44;;;;;;;10.93;2.87;;;;;;;14.68;55.50;99035.41;1715373;83;20985;-63
2021/05/21 05:55:12;;;;;;;10.78;3.33;;;;;;;14.33;55.62;99037.03;1698857;83;21448;-62
2021/05/21 05:57:39;;;;;;;24.27;3.27;;;;;;;14.11;55.86;99031.67;1701550;83;21008;-63
2021/05/21 06:00:07;;;;;;;46.08;5.90;;;;;;;13.83;55.74;99038.08;1705619;83;21556;-62
2021/05/21 06:02:34;;;;;;;39.80;3.98;;;;;;;13.53;55.83;99036.70;1706411;83;21637;-62
2021/05/21 06:05:02;;;;;;;3.40;2.47;;;;;;;13.20;55.95;99040.68;1722860;82;20925;-62
2021/05/21 06:07:29;;;;;;;17.60;3.42;;;;;;;12.91;55.94;99029.58;1708407;83;20946;-62
2021/05/21 06:09:56;;;;;;;8.88;2.60;;;;;;;12.57;56.13;99033.60;1697170;83;21555;-62
2021/05/21 06:12:23;;;;;;;5.25;2.47;;;;;;;12.39;56.30;99033.53;1702545;83;20927;-62
2021/05/21 06:14:49;;;;;;;9.33;3.75;;;;;;;12.16;56.45;99031.11;1699021;83;20965;-62
2021/05/21 06:17:18;;;;;;;5.85;2.85;;;;;;;11.96;56.49;99027.13;1711663;83;21522;-62
2021/05/21 06:19:47;;;;;;;28.50;6.20;;;;;;;11.84;56.71;99029.55;1715514;83;20925;-62
2021/05/21 06:22:13;;;;;;;6.83;3.08;;;;;;;11.74;56.77;99023.25;1722908;83;21812;-62
2021/05/21 06:24:43;;;;;;;5.10;2.92;;;;;;;11.69;56.91;99020.08;1711162;83;20960;-62
2021/05/21 06:29:35;;;;;;;21.93;4.27;;;;;;;11.58;57.20;99014.69;1709120;83;20938;-62
2021/05/21 06:32:02;;;;;;;21.15;4.75;;;;;;;11.63;57.43;99019.99;1708705;83;20997;-62
2021/05/21 06:34:29;;;;;;;22.42;3.60;;;;;;;11.77;57.71;99009.98;1707221;83;21030;-62
2021/05/21 06:36:56;;;;;;;8.00;2.52;;;;;;;11.98;57.66;99010.39;1710882;83;20967;-62
2021/05/21 06:39:22;;;;;;;17.93;3.77;;;;;;;12.17;57.69;99002.20;1703820;83;20923;-62
2021/05/21 06:41:49;;;;;;;51.77;7.22;;;;;;;12.42;57.83;98997.98;1703862;83;21835;-62
2021/05/21 06:44:16;;;;;;;39.75;5.85;;;;;;;12.64;57.77;99006.08;1705888;83;21425;-62
2021/05/21 06:46:43;;;;;;;40.00;5.90;;;;;;;13.00;57.85;99001.91;1708442;83;20930;-62
2021/05/21 06:49:11;;;;;;;39.83;4.57;;;;;;;13.31;57.78;98995.41;1714883;83;21135;-62
2021/05/21 06:51:38;;;;;;;25.57;3.47;;;;;;;13.60;57.68;98997.75;1706692;83;20957;-62
2021/05/21 06:54:06;;;;;;;21.07;3.58;;;;;;;13.99;57.81;98994.52;1713124;83;21524;-62
2021/05/21 06:56:35;;;;;;;15.55;2.75;;;;;;;14.60;57.98;98986.55;1711989;83;21017;-62
2021/05/21 06:59:03;;;;;;;10.48;2.50;;;;;;;15.07;57.49;98978.10;1702309;83;21036;-62
2021/05/21 07:01:30;;;;;;;10.85;2.83;;;;;;;15.27;57.11;98974.77;1689193;84;20949;-62
2021/05/21 07:03:57;;;;;;;37.58;4.20;;;;;;;15.40;56.97;98970.23;1679646;82;21449;-62
2021/05/21 07:06:24;;;;;;;18.30;3.22;;;;;;;15.49;57.05;98965.17;1691742;84;21594;-62
2021/05/21 07:08:53;;;;;;;22.40;2.80;;;;;;;15.87;57.41;98969.54;1689215;82;20889;-62
2021/05/21 07:11:20;;;;;;;7.50;2.75;;;;;;;16.25;56.73;98956.84;1699100;83;21023;-62
2021/05/21 07:13:47;;;;;;;3.72;2.22;;;;;;;16.77;57.39;98955.95;1680133;84;20958;-62
2021/05/21 07:16:14;;;;;;;3.22;2.33;;;;;;;17.14;56.32;98956.77;1675720;82;20963;-63
2021/05/21 07:18:40;;;;;;;43.25;22.27;;;;;;;16.96;56.11;98957.02;1694315;84;20945;-63
2021/05/21 07:21:07;;;;;;;40.78;8.68;;;;;;;16.95;56.15;98946.14;1678136;84;21005;-63
2021/05/21 07:23:37;;;;;;;658.30;455.37;;;;;;;17.37;56.56;98948.66;1692087;84;20998;-62
2021/05/21 07:26:06;;;;;;;67.10;38.88;;;;;;;17.89;56.87;98946.68;1679895;84;21408;-63
2021/05/21 07:28:37;;;;;;;14.35;6.22;;;;;;;18.34;55.76;98932.90;1692177;82;20986;-63
2021/05/21 07:31:11;;;;;;;34.95;4.50;;;;;;;18.45;55.90;98927.45;1681877;84;20967;-63
2021/05/21 07:33:37;;;;;;;12.95;2.98;;;;;;;18.67;56.02;98928.95;1693658;83;22120;-63
2021/05/21 07:36:05;;;;;;;3.25;2.50;;;;;;;18.93;55.85;98919.94;1690761;84;20999;-63
2021/05/21 07:38:35;;;;;;;41.35;3.62;;;;;;;19.08;55.00;98918.13;1682424;84;20965;-63
2021/05/21 07:41:01;;;;;;;8.03;2.67;;;;;;;19.26;55.49;98919.00;1695354;82;21456;-63
2021/05/21 07:43:29;;;;;;;7.40;2.50;;;;;;;19.42;54.80;98908.60;1692858;84;21494;-63
2021/05/21 07:45:57;;;;;;;;;;;;;;;19.45;54.39;98905.66;1687933;84;21408;-63
2021/05/21 07:48:26;;;;;;;4.12;2.35;;;;;;;19.37;53.89;98912.17;1695445;84;21000;-63
2021/05/21 07:50:56;;;;;;;13.15;3.00;;;;;;;19.14;53.82;98912.25;1691619;83;21506;-63
2021/05/21 07:53:23;;;;;;;;;;;;;;;18.85;53.60;98917.17;1685905;83;20971;-63
2021/05/21 07:55:51;;;;;;;;;;;;;;;18.52;53.41;98915.35;1696822;84;20175;-63
2021/05/21 07:58:19;;;;;;;17.50;2.90;;;;;;;18.20;53.68;98901.63;1702359;83;20560;-63
2021/05/21 08:00:46;;;;;;;12.45;2.50;;;;;;;18.00;53.72;98905.61;1700738;83;21057;-63
2021/05/21 08:03:15;;;;;;;32.25;3.40;;;;;;;17.77;53.59;98908.16;1698424;83;20943;-63
2021/05/21 08:05:41;;;;;;;9.10;2.20;;;;;;;17.71;53.79;98906.07;1699690;83;20927;-64
2021/05/21 08:08:13;;;;;;;15.13;2.17;;;;;;;17.60;53.29;98904.39;1705274;83;21006;-63
2021/05/21 08:10:43;;;;;;;11.85;2.25;;;;;;;17.42;53.68;98904.20;1711023;83;21444;-63
2021/05/21 08:13:10;;;;;;;3.45;1.85;;;;;;;17.30;53.31;98905.30;1696212;83;21066;-63
2021/05/21 08:15:37;;;;;;;;;;;;;;;17.07;53.17;98902.87;1705647;83;21853;-63
2021/05/21 08:18:04;;;;;;;7.75;1.87;;;;;;;16.90;53.28;98899.06;1705829;83;20479;-63
2021/05/21 08:20:31;;;;;;;2.58;1.98;;;;;;;16.89;53.39;98903.16;1697952;83;21036;-63
2021/05/21 08:22:58;;;;;;;72.40;5.58;;;;;;;16.83;53.25;98893.13;1699225;83;20933;-63
2021/05/21 08:25:25;;;;;;;11.70;3.10;;;;;;;16.77;53.22;98896.63;1713548;83;21535;-63
2021/05/21 08:27:53;;;;;;;3.27;2.27;;;;;;;16.82;53.27;98895.42;1699922;83;20955;-63
2021/05/21 08:30:21;;;;;;;8.00;2.52;;;;;;;16.91;53.12;98894.61;1698417;83;20985;-62
2021/05/21 08:32:49;;;;;;;6.50;2.92;;;;;;;17.01;53.07;98890.22;1699656;83;20965;-63
2021/05/21 08:35:19;;;;;;;5.22;2.15;;;;;;;17.06;53.06;98887.20;1698246;83;21537;-63
2021/05/21 08:37:47;;;;;;;10.23;2.08;;;;;;;17.06;52.95;98885.88;1698108;83;22554;-63
2021/05/21 08:40:27;;;;;;;8.43;2.15;;;;;;;17.05;52.90;98880.23;1700751;83;20953;-62
2021/05/21 08:42:57;;;;;;;4.90;1.95;;;;;;;17.06;53.03;98875.33;1694406;83;20990;-63
2021/05/21 08:45:28;;;;;;;9.63;2.33;;;;;;;17.16;52.93;98869.58;1694137;84;21579;-63
2021/05/21 08:47:55;;;;;;;8.95;2.35;;;;;;;17.36;53.05;98867.81;1695099;84;20943;-63
2021/05/21 08:50:22;;;;;;;5.80;2.37;;;;;;;17.51;52.94;98860.35;1693398;84;21071;-63
2021/05/21 08:52:49;;;;;;;29.60;4.37;;;;;;;17.58;52.56;98857.00;1695422;84;20924;-63
2021/05/21 08:55:17;;;;;;;10.18;2.08;;;;;;;17.53;52.32;98853.97;1692659;84;20908;-63
2021/05/21 08:57:45;;;;;;;8.38;1.90;;;;;;;17.53;52.37;98855.74;1694566;84;20964;-63
2021/05/21 09:00:14;;;;;;;5.80;1.92;;;;;;;17.45;52.41;98853.81;1679735;84;20981;-63
2021/05/21 09:02:41;;;;;;;7.33;2.47;;;;;;;17.39;52.21;98849.06;1686238;84;21017;-63
2021/05/21 09:05:09;;;;;;;;;;;;;;;17.42;52.56;98839.55;1681162;82;20957;-63
2021/05/21 09:07:42;;;;;;;3.92;1.60;;;;;;;17.54;52.30;98839.78;1690056;84;20499;-63
2021/05/21 09:10:13;;;;;;;2.98;1.52;;;;;;;17.56;52.29;98837.85;1685242;84;20921;-63
2021/05/21 09:12:47;;;;;;;7.20;1.95;;;;;;;17.46;51.86;98835.68;1673413;84;21106;-63
2021/05/21 09:15:22;;;;;;;10.43;2.45;;;;;;;17.23;51.86;98831.98;1684681;84;21037;-63
2021/05/21 09:18:08;;;;;;;16.97;2.12;;;;;;;17.03;52.00;98829.42;1681259;83;20979;-62
2021/05/21 09:20:40;;;;;;;40.08;5.35;;;;;;;16.95;52.03;98819.56;1683221;84;21549;-63
2021/05/21 09:23:12;;;;;;;6.28;2.25;;;;;;;16.96;51.98;98821.22;1690761;84;21002;-62
2021/05/21 09:25:46;;;;;;;5.90;2.10;;;;;;;17.10;52.01;98816.88;1682524;84;20963;-62
2021/05/21 09:28:37;;;;;;;4.53;1.82;;;;;;;17.33;52.44;98819.27;1675890;84;21761;-62
2021/05/21 09:31:19;;;;;;;3.55;2.10;;;;;;;17.60;52.10;98820.75;1689000;82;20991;-62
2021/05/21 09:33:49;;;;;;;9.13;1.85;;;;;;;17.86;51.97;98821.03;1677774;82;20965;-62
2021/05/21 09:36:32;;;;;;;14.03;2.70;;;;;;;18.13;51.80;98806.27;1693386;84;20926;-62
2021/05/21 09:39:00;;;;;;;12.28;2.37;;;;;;;18.35;52.06;98799.81;1684750;82;20973;-62
2021/05/21 09:41:27;;;;;;;15.88;2.45;;;;;;;18.53;51.63;98800.70;1683357;84;21013;-62
2021/05/21 09:43:57;;;;;;;14.58;1.82;;;;;;;18.60;51.35;98797.00;1684785;84;21000;-62
2021/05/21 09:46:26;;;;;;;7.92;1.90;;;;;;;18.61;51.39;98788.58;1661099;84;20984;-62
2021/05/21 09:48:52;;;;;;;12.82;2.35;;;;;;;18.53;51.22;98784.84;1670726;84;20906;-62
2021/05/21 09:51:22;;;;;;;5.12;1.60;;;;;;;18.49;51.01;98786.12;1687353;84;21025;-62
2021/05/21 09:53:51;;;;;;;2.37;1.40;;;;;;;18.40;51.01;98782.18;1691547;84;20941;-62
2021/05/21 09:56:20;;;;;;;5.50;1.70;;;;;;;18.26;50.71;98767.63;1684528;84;20949;-62
2021/05/21 09:58:47;;;;;;;21.75;2.40;;;;;;;18.24;50.97;98770.92;1681901;84;20961;-62
2021/05/21 10:01:19;;;;;;;;;;;;;;;18.32;50.80;98761.78;1688365;82;20981;-62
2021/05/21 10:03:53;;;;;;;87.30;8.70;;;;;;;18.39;50.33;98765.50;1689002;83;20170;-61
2021/05/21 10:06:21;;;;;;;4.40;1.95;;;;;;;18.56;50.40;98760.75;1685802;84;21050;-62
2021/05/21 10:08:48;;;;;;;4.83;1.65;;;;;;;18.86;50.76;98748.23;1675095;84;20927;-62
2021/05/21 10:11:16;;;;;;;;;;;;;;;19.35;50.85;98742.12;1679949;84;20985;-62
2021/05/21 10:13:45;;;;;;;15.32;1.72;;;;;;;19.71;50.20;98743.90;1680794;83;20168;-62
2021/05/21 10:16:15;;;;;;;26.52;2.98;;;;;;;19.78;50.00;98739.16;1679786;83;20931;-62
2021/05/21 10:18:48;;;;;;;3.25;1.07;;;;;;;19.61;49.25;98732.06;1686792;84;21083;-62
2021/05/21 10:21:15;;;;;;;27.67;3.95;;;;;;;19.22;48.82;98728.43;1680380;83;20994;-62
2021/05/21 10:23:56;;;;;;;5.30;1.40;;;;;;;18.91;49.20;98731.44;1680508;83;20919;-62
2021/05/21 10:26:32;;;;;;;4.05;1.25;;;;;;;18.69;49.14;98723.90;1677057;83;20945;-62
2021/05/21 10:28:58;;;;;;;3.05;1.22;;;;;;;18.62;49.23;98724.14;1683226;83;20937;-62
2021/05/21 10:31:27;;;;;;;3.00;1.60;;;;;;;18.64;49.32;98715.08;1679251;84;21066;-62
2021/05/21 10:34:16;;;;;;;5.60;1.30;;;;;;;19.11;49.76;98704.34;1683258;84;21043;-62
2021/05/21 10:36:43;;;;;;;1.70;1.40;;;;;;;19.54;49.37;98705.84;1681006;84;20915;-62
2021/05/21 10:39:19;;;;;;;4.72;1.45;;;;;;;19.74;48.83;98699.39;1685248;84;20973;-62
2021/05/21 10:41:57;;;;;;;5.37;1.47;;;;;;;19.70;48.51;98683.98;1684004;84;20967;-62
2021/05/21 10:44:40;;;;;;;11.10;1.95;;;;;;;19.82;49.10;98682.23;1682938;84;21005;-62
2021/05/21 10:47:24;;;;;;;7.05;2.12;;;;;;;19.93;48.43;98680.31;1683192;84;21006;-62
2021/05/21 10:50:02;;;;;;;6.47;1.60;;;;;;;19.70;48.24;98670.25;1682586;84;21053;-62
2021/05/21 10:53:02;;;;;;;4.58;1.50;;;;;;;19.66;48.52;98667.09;1690232;84;20951;-62
2021/05/21 10:55:53;;;;;;;10.75;2.00;;;;;;;19.95;48.31;98652.67;1687157;84;20933;-62
2021/05/21 10:58:31;;;;;;;15.32;2.37;;;;;;;19.89;48.37;98660.76;1685937;84;21751;-63
2021/05/21 11:01:22;;;;;;;8.45;1.57;;;;;;;19.99;48.19;98649.20;1701149;82;21446;-62
2021/05/21 11:04:06;;;;;;;45.17;3.83;;;;;;;20.12;47.77;98639.00;1691138;82;20892;-62
2021/05/21 11:06:47;;;;;;;5.45;2.10;;;;;;;20.13;47.61;98647.27;1681202;84;20952;-62
2021/05/21 11:09:18;;;;;;;9.90;1.77;;;;;;;20.21;47.63;98631.41;1694762;84;20932;-62
2021/05/21 11:11:54;;;;;;;2.95;1.37;;;;;;;20.10;47.41;98635.67;1689293;84;21112;-62
2021/05/21 11:14:39;;;;;;;67.67;6.15;;;;;;;19.98;47.35;98640.93;1663217;84;20983;-62
2021/05/21 11:17:14;;;;;;;2.10;1.50;;;;;;;19.85;47.25;98634.23;1696348;84;21641;-62
2021/05/21 11:19:59;;;;;;;44.03;4.00;;;;;;;19.97;47.56;98632.62;1679324;84;21292;-62
2021/05/21 11:22:37;;;;;;;2.20;1.22;;;;;;;20.08;47.39;98627.90;1702741;82;21034;-62
2021/05/21 11:25:09;;;;;;;8.58;1.42;;;;;;;20.07;47.09;98617.44;1712572;83;21008;-62
2021/05/21 11:27:37;;;;;;;10.25;2.17;;;;;;;20.03;47.22;98609.49;1683074;84;21421;-62
2021/05/21 11:30:09;;;;;;;3.33;1.20;;;;;;;20.08;47.23;98612.47;1693442;83;21473;-62
2021/05/21 11:32:40;;;;;;;4.22;1.72;;;;;;;20.12;47.27;98603.22;1714502;82;20942;-62
2021/05/21 11:35:09;;;;;;;4.17;1.10;;;;;;;20.46;47.48;98594.37;1682353;84;20894;-62
2021/05/21 11:37:39;;;;;;;2.92;1.30;;;;;;;20.77;47.41;98582.16;1676893;83;21741;-62
2021/05/21 11:40:08;;;;;;;10.43;1.75;;;;;;;20.84;47.02;98580.16;1686400;83;20979;-62
2021/05/21 11:42:35;;;;;;;24.90;2.30;;;;;;;21.10;47.22;98576.84;1733000;81;21440;-62
2021/05/21 11:45:06;;;;;;;3.95;1.17;;;;;;;21.53;47.08;98572.14;1736987;81;21495;-63
2021/05/21 11:47:37;;;;;;;32.35;3.65;;;;;;;21.42;46.13;98571.17;1740130;81;20955;-63